ADDS TAF Board (Experimental) INFO Settings
IDs: Format: Expanded Condensed

KMDW - Chicago/Midway Intl, IL, US

Issued at 1505 UTC 29 Jun 2016
Updated at: 1617 UTC 29 Jun 2016
Time1553Z 29/17Z 29/18Z 29/19Z 29/20Z 29/21Z 29/22Z 29/23Z 30/00Z 30/01Z 30/02Z 30/03Z 30/04Z 30/05Z
Type OBS PRVL PRVL PRVL PRVL PRVL PRVL PRVL PRVL PRVL PRVL PRVL PRVL PRVL
VIS 10 >6 >6 >6 >6 >6 >6 >6 >6 >6 >6 >6 >6 >6
CIG -- -- -- -- -- -- -- -- -- -- -- -- -- --
Cover FEW SKC FEW FEW FEW FEW FEW FEW FEW FEW FEW FEW FEW SKC
FltCat VFR VFR VFR VFR VFR VFR VFR VFR VFR VFR VFR VFR VFR VFR
WX -- -- -- -- -- -- -- -- -- -- -- -- -- --
WDir 30 10 60 60 60 60 60 60 60 120 120 120 120 190
WSpd 9 8 6 6 6 6 6 6 6 6 6 6 6 6
WGst -- -- -- -- -- -- -- -- -- -- -- -- -- --
R04/22
XWnd 2 4 -2 -2 -2 -2 -2 -2 -2 -6 -6 -6 -6 -3
HWnd 9 7 6 6 6 6 6 6 6 1 1 1 1 -5
R13/31
XWnd 9 7 6 6 6 6 6 6 6 1 1 1 1 -5
HWnd -2 -4 2 2 2 2 2 2 2 6 6 6 6 3

NOTE: TEMPO conditions in [brackets]. Keep in mind TEMPO conditions might be better (lower impact) than prevailing conditions.

Raw TAF
KMDW 291505Z 2915/3012 01008KT P6SM SKC
  FM291800 06006KT P6SM FEW040
  FM300100 12006KT P6SM FEW250
  FM300500 19006KT P6SM SKC


Raw METAR
KMDW 291553Z 03009KT 10SM FEW050 23/09 A3013 RMK AO2 SLP198 T02330094
KMDW 291453Z 02009KT 10SM CLR 22/09 A3014 RMK AO2 SLP200 T02220089 57000
KMDW 291353Z 36007KT 340V050 10SM FEW100 22/09 A3014 RMK AO2 SLP200 T02170089

METAR Board
Radar Display
Forecast Discussion

TAF Board Legend

Potential Impact
Threat None Slight Moderate High
Visibility (sm) ≥5.1 5.1>X≥3 3>X≥1 <1
Ceiling (100 ft) ≥30.1 30.1>X≥10 10>X≥5 <5
Wind Speed (kt) <10 10≤X<20 20≤X<30 ≥30
Wind Gust (kt) <15 15≤X<25 25≤X<35 ≥35
Weather No Wx Reported VCTS,-TS,-FZRA,SN TS,FZRA +TS,+FZRA,+SN